createdAt,value
2024-02-08T00:01:58.133Z,6.28
2024-02-08T00:04:25.123Z,6.88
2024-02-08T00:06:52.121Z,5.72
2024-02-08T00:09:18.922Z,5.47
2024-02-08T00:11:45.662Z,5.20
2024-02-08T00:14:12.537Z,6.75
2024-02-08T00:16:39.375Z,4.70
2024-02-08T00:19:06.301Z,7.82
2024-02-08T00:21:36.410Z,6.40
2024-02-08T00:24:03.659Z,5.53
2024-02-08T00:26:30.506Z,5.97
2024-02-08T00:28:57.259Z,4.88
2024-02-08T00:31:26.441Z,6.85
2024-02-08T00:33:53.300Z,3.95
2024-02-08T00:36:20.067Z,5.60
2024-02-08T00:38:46.905Z,6.05
2024-02-08T00:41:13.743Z,5.35
2024-02-08T00:43:40.922Z,5.85
2024-02-08T00:46:07.825Z,4.15
2024-02-08T00:48:34.711Z,5.32
2024-02-08T00:51:01.521Z,4.68
2024-02-08T00:53:28.261Z,5.63
2024-02-08T00:55:55.057Z,5.25
2024-02-08T00:58:22.307Z,5.57
2024-02-08T01:00:49.332Z,7.00
2024-02-08T01:03:16.272Z,6.22
2024-02-08T01:05:43.760Z,5.13
2024-02-08T01:08:10.712Z,5.63
2024-02-08T01:10:37.523Z,7.45
2024-02-08T01:13:05.795Z,5.70
2024-02-08T01:15:32.708Z,7.35
2024-02-08T01:17:59.976Z,9.27
2024-02-08T01:20:29.191Z,7.47
2024-02-08T01:22:56.505Z,6.65
2024-02-08T01:25:23.754Z,5.63
2024-02-08T01:27:50.737Z,7.50
2024-02-08T01:30:17.734Z,5.90
2024-02-08T01:32:44.531Z,6.82
2024-02-08T01:35:23.656Z,5.85
2024-02-08T01:37:50.738Z,6.82
2024-02-08T01:40:18.524Z,6.40
2024-02-08T01:42:45.696Z,7.53
2024-02-08T01:45:31.868Z,5.30
2024-02-08T01:48:04.441Z,6.68
2024-02-08T01:50:37.300Z,5.93
2024-02-08T01:53:06.677Z,6.78
2024-02-08T01:55:35.192Z,5.47
2024-02-08T01:58:08.488Z,9.15
2024-02-08T02:00:38.223Z,6.97
2024-02-08T02:03:06.161Z,6.53
2024-02-08T02:05:33.353Z,10.80
2024-02-08T02:08:00.332Z,7.15
2024-02-08T02:10:31.237Z,5.55
2024-02-08T02:13:02.351Z,6.30
2024-02-08T02:15:32.883Z,8.23
2024-02-08T02:18:05.155Z,7.80
2024-02-08T02:20:32.088Z,5.82
2024-02-08T02:23:02.017Z,8.35
2024-02-08T02:25:29.517Z,6.82
2024-02-08T02:27:59.812Z,8.68
2024-02-08T02:30:28.514Z,7.07
2024-02-08T02:32:57.740Z,6.20
2024-02-08T02:35:24.966Z,6.43
2024-02-08T02:37:52.460Z,8.07
2024-02-08T02:40:25.759Z,8.82
2024-02-08T02:42:53.218Z,5.13
2024-02-08T02:45:24.615Z,9.85
2024-02-08T02:47:54.781Z,7.75
2024-02-08T02:50:23.083Z,7.80
2024-02-08T02:52:51.211Z,6.43
2024-02-08T02:55:18.922Z,6.00
2024-02-08T02:57:46.488Z,7.43
2024-02-08T03:00:22.509Z,7.25
2024-02-08T03:02:53.413Z,6.22
2024-02-08T03:05:24.029Z,5.82
2024-02-08T03:07:51.518Z,7.15
2024-02-08T03:10:22.113Z,8.07
2024-02-08T03:12:52.937Z,6.70
2024-02-08T03:15:20.321Z,6.57
2024-02-08T03:17:48.512Z,5.93
2024-02-08T03:20:24.909Z,7.53
2024-02-08T03:22:52.637Z,8.27
2024-02-08T03:25:22.895Z,7.65
2024-02-08T03:27:53.679Z,5.93
2024-02-08T03:30:23.793Z,7.40
2024-02-08T03:32:52.362Z,7.25
2024-02-08T03:35:37.326Z,6.22
2024-02-08T03:38:04.350Z,7.90
2024-02-08T03:40:34.762Z,5.57
2024-02-08T03:43:02.393Z,5.30
2024-02-08T03:45:29.415Z,7.93
2024-02-08T03:48:05.708Z,6.13
2024-02-08T03:50:35.567Z,7.70
2024-02-08T03:53:06.084Z,6.30
2024-02-08T03:55:36.316Z,6.53
2024-02-08T03:58:07.907Z,7.90
2024-02-08T04:00:35.683Z,6.35
2024-02-08T04:03:11.752Z,5.70
2024-02-08T04:05:57.796Z,7.53
2024-02-08T04:08:27.392Z,6.72
2024-02-08T04:10:58.365Z,6.30
2024-02-08T04:13:44.975Z,7.00
2024-02-08T04:16:30.900Z,5.85
2024-02-08T04:19:18.424Z,5.53
2024-02-08T04:22:03.889Z,7.43
2024-02-08T04:24:49.353Z,7.03
2024-02-08T04:27:34.857Z,6.47
2024-02-08T04:30:20.301Z,6.22
2024-02-08T04:33:08.513Z,7.30
2024-02-08T04:35:53.793Z,5.65
2024-02-08T04:38:39.297Z,5.60
2024-02-08T04:41:24.806Z,6.05
2024-02-08T04:44:10.344Z,4.60
2024-02-08T04:46:56.398Z,6.22
2024-02-08T04:49:41.680Z,4.55
2024-02-08T04:52:27.032Z,4.03
2024-02-08T04:54:53.812Z,6.82
2024-02-08T04:57:20.622Z,4.47
2024-02-08T04:59:48.105Z,3.40
2024-02-08T05:02:16.049Z,3.20
2024-02-08T05:04:44.426Z,2.95
2024-02-08T05:07:11.811Z,5.35
2024-02-08T05:09:41.217Z,3.92
2024-02-08T05:12:08.968Z,4.65
2024-02-08T05:14:36.331Z,4.90
2024-02-08T05:17:03.753Z,4.50
2024-02-08T05:19:30.726Z,7.82
2024-02-08T05:22:01.716Z,5.75
2024-02-08T05:24:29.792Z,4.37
2024-02-08T05:26:57.097Z,4.18
2024-02-08T05:29:24.062Z,4.60
2024-02-08T05:31:51.118Z,5.72
2024-02-08T05:34:19.270Z,4.60
2024-02-08T05:36:47.931Z,3.80
2024-02-08T05:39:27.371Z,3.75
2024-02-08T05:41:57.151Z,5.38
2024-02-08T05:44:31.262Z,6.28
2024-02-08T05:47:06.770Z,7.57
2024-02-08T05:49:33.589Z,6.30
2024-02-08T05:52:07.678Z,6.68
2024-02-08T05:54:38.442Z,4.78
2024-02-08T05:57:08.119Z,5.32
2024-02-08T05:59:38.624Z,4.95
2024-02-08T06:02:16.378Z,4.57
2024-02-08T06:04:53.936Z,5.50
2024-02-08T06:07:21.884Z,5.07
2024-02-08T06:09:50.398Z,7.85
2024-02-08T06:12:37.852Z,5.15
2024-02-08T06:15:16.119Z,5.15
2024-02-08T06:17:47.103Z,5.95
2024-02-08T06:20:15.945Z,6.47
2024-02-08T06:22:44.729Z,4.85
2024-02-08T06:25:33.255Z,5.68
2024-02-08T06:28:02.804Z,6.22
2024-02-08T06:30:32.864Z,10.80
2024-02-08T06:33:26.377Z,9.68
2024-02-08T06:35:58.483Z,6.25
2024-02-08T06:41:45.832Z,5.45
2024-02-08T06:44:35.580Z,4.57
2024-02-08T06:47:40.508Z,4.57
2024-02-08T06:50:25.913Z,5.75
2024-02-08T06:53:11.311Z,6.57
2024-02-08T06:55:56.818Z,6.05
2024-02-08T06:58:42.060Z,6.00
2024-02-08T07:01:27.266Z,4.75
2024-02-08T07:04:13.395Z,4.05
2024-02-08T07:06:58.840Z,3.95
2024-02-08T07:09:44.354Z,4.63
2024-02-08T07:12:29.607Z,4.97
2024-02-08T07:15:14.847Z,3.30
2024-02-08T07:18:00.365Z,4.57
2024-02-08T07:20:45.676Z,2.53
2024-02-08T07:23:31.176Z,4.95
2024-02-08T07:26:16.823Z,3.45
2024-02-08T07:29:02.415Z,3.50
2024-02-08T07:31:47.762Z,3.03
2024-02-08T07:34:33.372Z,3.10
2024-02-08T07:37:19.360Z,5.75
2024-02-08T07:40:02.367Z,4.18
2024-02-08T07:42:43.087Z,5.00
2024-02-08T07:45:14.293Z,5.72
2024-02-08T07:47:41.657Z,6.20
2024-02-08T07:50:09.877Z,6.57
2024-02-08T07:52:59.199Z,5.40
2024-02-08T07:55:31.984Z,7.18
2024-02-08T07:57:59.501Z,7.63
2024-02-08T08:00:35.948Z,8.23
2024-02-08T08:03:17.878Z,6.07
2024-02-08T08:05:46.437Z,5.05
2024-02-08T08:08:29.192Z,4.75
2024-02-08T08:10:57.869Z,3.45
2024-02-08T08:13:44.201Z,4.18
2024-02-08T08:16:30.150Z,3.35
2024-02-08T08:19:00.189Z,4.43
2024-02-08T08:21:28.355Z,2.60
2024-02-08T08:24:01.754Z,3.67
2024-02-08T08:26:40.489Z,1.60
2024-02-08T08:29:18.053Z,3.40
2024-02-08T08:31:55.223Z,3.67
2024-02-08T08:34:26.306Z,6.15
2024-02-08T08:37:04.979Z,2.20
2024-02-08T08:39:51.229Z,3.00
2024-02-08T08:42:18.382Z,2.38
2024-02-08T08:44:58.300Z,2.30
2024-02-08T08:47:26.133Z,3.25
2024-02-08T08:49:53.230Z,3.72
2024-02-08T08:52:26.940Z,6.00
2024-02-08T08:55:24.026Z,6.32
2024-02-08T08:58:01.728Z,8.20
2024-02-08T09:00:38.759Z,7.28
2024-02-08T09:03:06.017Z,6.68
2024-02-08T09:05:33.472Z,8.82
2024-02-08T09:08:01.761Z,7.85
2024-02-08T09:10:36.207Z,8.02
2024-02-08T09:13:08.246Z,6.20
2024-02-08T09:15:57.524Z,6.00
2024-02-08T09:18:46.006Z,4.13
2024-02-08T09:21:13.985Z,2.65
2024-02-08T09:23:40.765Z,6.45
2024-02-08T09:26:12.898Z,4.88
2024-02-08T09:28:43.999Z,3.10
2024-02-08T09:31:14.394Z,3.00
2024-02-08T09:34:02.160Z,2.40
2024-02-08T09:36:31.074Z,2.90
2024-02-08T09:38:58.110Z,5.30
2024-02-08T09:41:25.869Z,4.20
2024-02-08T09:44:00.634Z,3.40
2024-02-08T09:46:35.798Z,2.95
2024-02-08T09:49:19.892Z,2.40
2024-02-08T09:51:56.922Z,2.65
2024-02-08T09:54:34.397Z,3.35
2024-02-08T09:57:23.263Z,2.47
2024-02-08T10:00:02.146Z,3.17
2024-02-08T10:02:36.959Z,2.33
2024-02-08T10:05:23.739Z,4.22
2024-02-08T10:08:20.096Z,3.38
2024-02-08T10:11:00.338Z,2.72
2024-02-08T10:13:53.739Z,3.05
2024-02-08T10:16:30.929Z,4.30
2024-02-08T10:19:03.690Z,3.38
2024-02-08T10:21:31.400Z,3.55
2024-02-08T10:24:14.065Z,3.72
2024-02-08T10:26:47.265Z,2.08
2024-02-08T10:29:16.931Z,2.05
2024-02-08T10:31:53.497Z,1.95
2024-02-08T10:34:34.089Z,1.92
2024-02-08T10:37:01.525Z,3.05
2024-02-08T10:39:28.666Z,2.58
2024-02-08T10:41:59.071Z,3.05
2024-02-08T10:44:34.079Z,3.30
2024-02-08T10:47:09.006Z,4.25
2024-02-08T10:49:44.420Z,3.97
2024-02-08T10:52:21.655Z,4.80
2024-02-08T10:54:53.747Z,3.85
2024-02-08T11:00:32.238Z,2.85
2024-02-08T11:03:09.169Z,3.25
2024-02-08T11:05:49.929Z,4.35
2024-02-08T11:08:25.862Z,4.85
2024-02-08T11:10:59.987Z,4.55
2024-02-08T11:13:32.027Z,3.65
2024-02-08T11:16:20.907Z,4.00
2024-02-08T11:18:54.467Z,3.70
2024-02-08T11:21:45.304Z,3.35
2024-02-08T11:24:29.531Z,3.42
2024-02-08T11:26:59.517Z,2.67
2024-02-08T11:29:28.786Z,1.67
2024-02-08T11:32:00.968Z,3.05
2024-02-08T11:34:42.181Z,1.63
2024-02-08T11:37:20.248Z,1.40
2024-02-08T11:39:58.791Z,2.03
2024-02-08T11:42:33.229Z,1.13
2024-02-08T11:45:01.941Z,1.00
2024-02-08T11:47:29.885Z,1.83
2024-02-08T11:50:02.582Z,1.85
2024-02-08T11:52:30.906Z,3.00
2024-02-08T11:55:15.162Z,3.20
2024-02-08T11:57:43.128Z,3.53
2024-02-08T12:00:18.347Z,2.50
2024-02-08T12:02:58.518Z,2.95
2024-02-08T12:05:27.438Z,2.53
2024-02-08T12:08:09.417Z,1.90
2024-02-08T12:10:38.460Z,2.50
2024-02-08T12:13:06.432Z,3.17
2024-02-08T12:15:36.112Z,2.35
2024-02-08T12:18:07.342Z,2.75
2024-02-08T12:20:37.571Z,3.28
2024-02-08T12:23:05.129Z,3.20
2024-02-08T12:25:32.638Z,1.30
2024-02-08T12:28:06.376Z,1.20
2024-02-08T12:30:37.504Z,2.60
2024-02-08T12:33:09.490Z,3.83
2024-02-08T12:35:42.140Z,3.63
2024-02-08T12:38:12.573Z,1.85
2024-02-08T12:40:41.014Z,2.22
2024-02-08T12:43:09.496Z,1.90
2024-02-08T12:45:39.189Z,2.65
2024-02-08T12:48:09.264Z,2.63
2024-02-08T12:50:39.226Z,2.00
2024-02-08T12:53:14.062Z,2.60
2024-02-08T12:55:41.662Z,1.85
2024-02-08T12:58:14.913Z,1.70
2024-02-08T13:00:46.326Z,1.38
2024-02-08T13:03:13.277Z,1.50
2024-02-08T13:05:41.662Z,3.03
2024-02-08T13:08:10.121Z,1.42
2024-02-08T13:10:39.821Z,2.15
2024-02-08T13:13:11.717Z,2.10
2024-02-08T13:15:42.952Z,1.48
2024-02-08T13:18:11.919Z,2.55
2024-02-08T13:20:43.011Z,1.90
2024-02-08T13:23:11.458Z,3.47
2024-02-08T13:25:41.146Z,1.77
2024-02-08T13:28:11.477Z,3.38
2024-02-08T13:30:41.220Z,2.42
2024-02-08T13:33:11.888Z,1.20
2024-02-08T13:35:42.017Z,1.30
2024-02-08T13:38:12.817Z,1.98
2024-02-08T13:40:44.442Z,5.05
2024-02-08T13:43:12.938Z,2.83
2024-02-08T13:45:41.388Z,1.85
2024-02-08T13:48:17.617Z,0.75
2024-02-08T13:50:45.512Z,1.40
2024-02-08T13:53:16.216Z,1.67
2024-02-08T13:55:54.326Z,2.85
2024-02-08T13:58:25.072Z,3.13
2024-02-08T14:00:56.098Z,1.38
2024-02-08T14:03:24.934Z,2.25
2024-02-08T14:05:53.808Z,1.35
2024-02-08T14:08:25.118Z,1.83
2024-02-08T14:10:52.936Z,1.65
2024-02-08T14:13:30.445Z,1.50
2024-02-08T14:16:01.910Z,1.20
2024-02-08T14:18:34.094Z,1.17
2024-02-08T14:21:03.250Z,1.23
2024-02-08T14:23:41.707Z,2.85
2024-02-08T14:26:09.080Z,1.90
2024-02-08T14:28:47.177Z,1.90
2024-02-08T14:31:17.993Z,1.10
2024-02-08T14:33:48.714Z,1.23
2024-02-08T14:36:17.976Z,1.27
2024-02-08T14:38:49.774Z,1.58
2024-02-08T14:44:10.158Z,1.58
2024-02-08T14:46:41.964Z,2.92
2024-02-08T14:51:52.166Z,1.23
2024-02-08T14:54:21.810Z,1.23
2024-02-08T14:57:05.237Z,1.45
2024-02-08T14:59:42.791Z,2.75
2024-02-08T15:02:19.947Z,6.07
2024-02-08T15:04:53.400Z,1.20
2024-02-08T15:07:39.420Z,2.28
2024-02-08T15:10:15.013Z,3.45
2024-02-08T15:12:57.874Z,1.55
2024-02-08T15:15:32.481Z,2.22
2024-02-08T15:18:14.080Z,3.35
2024-02-08T15:20:57.609Z,2.08
2024-02-08T15:23:35.751Z,2.72
2024-02-08T15:26:03.950Z,2.72
2024-02-08T15:28:43.290Z,1.40
2024-02-08T15:31:17.567Z,2.33
2024-02-08T15:33:59.687Z,2.72
2024-02-08T15:36:33.917Z,1.77
2024-02-08T15:39:19.354Z,2.50
2024-02-08T15:41:52.586Z,5.22
2024-02-08T15:44:35.168Z,3.75
2024-02-08T15:47:13.024Z,5.68
2024-02-08T15:49:40.347Z,2.75
2024-02-08T15:52:15.888Z,3.40
2024-02-08T15:54:45.174Z,3.38
2024-02-08T15:57:15.330Z,2.90
2024-02-08T15:59:45.845Z,0.70
2024-02-08T16:02:19.243Z,1.13
2024-02-08T16:04:52.317Z,1.05
2024-02-08T16:07:28.730Z,1.70
2024-02-08T16:09:59.779Z,0.93
2024-02-08T16:12:32.757Z,0.95
2024-02-08T16:15:06.400Z,0.90
2024-02-08T16:17:36.654Z,0.60
2024-02-08T16:20:18.086Z,0.82
2024-02-08T16:22:59.668Z,0.55
2024-02-08T16:25:45.167Z,1.17
2024-02-08T16:28:21.070Z,0.52
2024-02-08T16:30:59.463Z,0.73
2024-02-08T16:33:49.190Z,1.13
2024-02-08T16:36:31.081Z,0.68
2024-02-08T16:39:22.657Z,0.88
2024-02-08T16:41:58.055Z,1.23
2024-02-08T16:44:31.796Z,1.42
2024-02-08T16:47:01.002Z,0.25
2024-02-08T16:49:31.720Z,0.70
2024-02-08T16:52:05.419Z,2.40
2024-02-08T16:54:35.707Z,0.88
2024-02-08T16:57:08.412Z,0.65
2024-02-08T16:59:54.161Z,1.00
2024-02-08T17:02:28.386Z,1.52
2024-02-08T17:05:17.434Z,1.25
2024-02-08T17:07:44.856Z,1.13
2024-02-08T17:10:37.343Z,2.35
2024-02-08T17:13:28.891Z,1.77
2024-02-08T17:16:02.782Z,2.00
2024-02-08T17:18:48.113Z,1.92
2024-02-08T17:21:38.296Z,3.25
2024-02-08T17:24:09.928Z,2.33
2024-02-08T17:26:37.085Z,2.28
2024-02-08T17:29:21.002Z,3.92
2024-02-08T17:31:49.304Z,3.42
2024-02-08T17:34:22.702Z,3.08
2024-02-08T17:36:55.254Z,3.20
2024-02-08T17:39:26.237Z,4.68
2024-02-08T17:41:53.712Z,3.95
2024-02-08T17:44:20.758Z,3.53
2024-02-08T17:46:54.236Z,3.67
2024-02-08T17:49:21.899Z,3.55
2024-02-08T17:51:51.061Z,3.88
2024-02-08T17:54:26.428Z,5.75
2024-02-08T17:57:00.785Z,5.47
2024-02-08T17:59:30.158Z,4.75
2024-02-08T18:02:02.432Z,4.13
2024-02-08T18:04:38.008Z,3.90
2024-02-08T18:07:10.456Z,4.03
2024-02-08T18:09:40.995Z,5.55
2024-02-08T18:12:14.552Z,3.83
2024-02-08T18:14:44.967Z,4.60
2024-02-08T18:17:27.793Z,3.30
2024-02-08T18:19:55.015Z,3.08
2024-02-08T18:22:32.757Z,3.97
2024-02-08T18:25:00.446Z,4.18
2024-02-08T18:27:33.665Z,5.47
2024-02-08T18:30:01.803Z,3.90
2024-02-08T18:32:30.562Z,6.80
2024-02-08T18:35:03.269Z,3.90
2024-02-08T18:37:30.372Z,4.70
2024-02-08T18:39:59.848Z,4.05
2024-02-08T18:42:30.255Z,3.60
2024-02-08T18:45:08.486Z,4.30
2024-02-08T18:47:36.310Z,5.88
2024-02-08T18:50:07.808Z,3.75
2024-02-08T18:52:37.362Z,4.18
2024-02-08T18:55:11.073Z,6.05
2024-02-08T18:57:38.140Z,4.13
2024-02-08T19:00:05.677Z,3.72
2024-02-08T19:02:32.554Z,3.08
2024-02-08T19:05:02.216Z,3.80
2024-02-08T19:07:29.283Z,5.88
2024-02-08T19:09:56.486Z,6.18
2024-02-08T19:12:26.922Z,3.38
2024-02-08T19:14:56.643Z,4.28
2024-02-08T19:17:26.731Z,4.07
2024-02-08T19:19:53.868Z,4.50
2024-02-08T19:22:24.491Z,5.00
2024-02-08T19:24:54.896Z,3.87
2024-02-08T19:27:22.584Z,4.25
2024-02-08T19:29:53.412Z,5.30
2024-02-08T19:32:20.736Z,4.57
2024-02-08T19:34:47.910Z,4.43
2024-02-08T19:37:14.747Z,4.50
2024-02-08T19:39:42.617Z,4.43
2024-02-08T19:42:19.773Z,8.55
2024-02-08T19:44:53.900Z,3.35
2024-02-08T19:47:27.990Z,5.93
2024-02-08T19:50:03.776Z,5.72
2024-02-08T19:52:47.830Z,5.05
2024-02-08T19:55:32.179Z,9.02
2024-02-08T19:58:00.017Z,4.15
2024-02-08T20:00:33.055Z,4.45
2024-02-08T20:03:12.990Z,4.18
2024-02-08T20:05:41.503Z,6.07
2024-02-08T20:08:24.483Z,4.82
2024-02-08T20:10:52.760Z,5.85
2024-02-08T20:13:24.907Z,5.75
2024-02-08T20:15:54.601Z,7.63
2024-02-08T20:18:22.087Z,6.85
2024-02-08T20:20:49.255Z,8.00
2024-02-08T20:23:33.042Z,6.82
2024-02-08T20:26:14.497Z,7.35
2024-02-08T20:28:45.044Z,5.15
2024-02-08T20:31:17.909Z,5.47
2024-02-08T20:33:44.805Z,7.25
2024-02-08T20:36:14.857Z,3.63
2024-02-08T20:38:43.826Z,4.95
2024-02-08T20:41:11.968Z,4.13
2024-02-08T20:43:49.161Z,4.80
2024-02-08T20:46:17.404Z,3.25
2024-02-08T20:48:44.321Z,4.20
2024-02-08T20:51:12.513Z,4.15
2024-02-08T20:53:39.274Z,4.03
2024-02-08T20:56:07.414Z,4.88
2024-02-08T20:58:37.724Z,4.25
2024-02-08T21:01:05.808Z,4.63
2024-02-08T21:03:33.231Z,3.47
2024-02-08T21:06:00.347Z,3.53
2024-02-08T21:08:27.456Z,4.63
2024-02-08T21:10:58.030Z,3.63
2024-02-08T21:13:26.264Z,4.28
2024-02-08T21:15:54.713Z,6.05
2024-02-08T21:18:22.112Z,3.38
2024-02-08T21:20:54.236Z,3.47
2024-02-08T21:23:21.456Z,4.05
2024-02-08T21:25:51.604Z,3.50
2024-02-08T21:28:24.243Z,3.13
2024-02-08T21:30:51.352Z,4.05
2024-02-08T21:33:18.334Z,3.33
2024-02-08T21:35:48.309Z,3.35
2024-02-08T21:38:17.351Z,3.20
2024-02-08T21:40:46.942Z,4.32
2024-02-08T21:43:16.850Z,3.25
2024-02-08T21:45:48.147Z,4.53
2024-02-08T21:48:16.310Z,3.35
2024-02-08T21:50:48.600Z,5.43
2024-02-08T21:53:16.423Z,4.18
2024-02-08T21:55:46.485Z,3.85
2024-02-08T21:58:13.608Z,3.70
2024-02-08T22:00:43.103Z,3.38
2024-02-08T22:03:10.132Z,4.28
2024-02-08T22:05:37.348Z,3.38
2024-02-08T22:08:05.223Z,3.38
2024-02-08T22:10:32.663Z,3.85
2024-02-08T22:13:03.371Z,4.28
2024-02-08T22:15:33.620Z,4.35
2024-02-08T22:18:03.298Z,3.55
2024-02-08T22:20:30.938Z,3.30
2024-02-08T22:23:00.956Z,3.15
2024-02-08T22:25:27.987Z,2.90
2024-02-08T22:27:56.006Z,3.70
2024-02-08T22:30:23.361Z,2.95
2024-02-08T22:32:54.018Z,4.28
2024-02-08T22:35:21.031Z,3.30
2024-02-08T22:37:50.035Z,3.15
2024-02-08T22:40:20.322Z,3.72
2024-02-08T22:42:47.698Z,3.28
2024-02-08T22:45:15.156Z,4.75
2024-02-08T22:47:44.189Z,3.42
2024-02-08T22:50:16.086Z,4.05
2024-02-08T22:55:23.238Z,4.07
2024-02-08T22:57:51.726Z,4.60
2024-02-08T23:00:25.052Z,4.05
2024-02-08T23:03:08.544Z,3.65
2024-02-08T23:05:41.200Z,5.15
2024-02-08T23:08:11.959Z,3.50
2024-02-08T23:10:40.732Z,5.07
2024-02-08T23:13:12.101Z,4.97
2024-02-08T23:15:47.151Z,4.18
2024-02-08T23:18:23.676Z,6.72
2024-02-08T23:20:55.374Z,5.47
2024-02-08T23:23:22.283Z,5.37
2024-02-08T23:25:49.748Z,4.50
2024-02-08T23:28:17.156Z,4.78
2024-02-08T23:30:45.905Z,4.03
2024-02-08T23:33:14.846Z,3.65
2024-02-08T23:35:41.938Z,3.00
2024-02-08T23:38:08.924Z,3.92
2024-02-08T23:40:36.154Z,5.28
2024-02-08T23:43:08.970Z,4.38
2024-02-08T23:45:39.904Z,3.75
2024-02-08T23:48:07.639Z,4.90
2024-02-08T23:50:34.670Z,3.95
2024-02-08T23:53:01.925Z,4.63
2024-02-08T23:55:29.772Z,3.90
2024-02-08T23:57:57.490Z,4.10
